• Join FlightAware (Why Join?)
  • Login
  • US Flag 
Rudolph Flight #1: Arrived! 
09:47AM EST


 

Airport Tracker/Info


-or-


 

Live Flight TrackerFlight Track Log ✈ AWE1940 ✈ 22-Jun-2013 ✈ KIAH - KCLT

Flight Track Log - Related Links

Times and Time Zones

All times are in EDT time to prevent confusion due to time zone crossing. See the AWE1940 flight status page for this flight to view local times or setup timezone preferences in your user account.

Time Position Orientation Groundspeed Altitude Reporting Facility
EDT Latitude Longitude Course Direction KTS MPH feet Rate Location/Type
06:35PM 29.9594 -95.3414 90° East 175 201 1,000  Level Houston Center
06:36PM 29.9508 -95.2942 102° East 213 245 2,300 1,740 Climbing Houston Center
06:36PM 29.9506 -95.2589 91° East 220 253 3,300 2,460 Climbing Houston Center
06:37PM 29.9442 -95.1986 97° East 278 320 5,100 3,060 Climbing Houston Center
06:38PM 29.9833 -94.8399 90° East  Level FlightAware Approximate
06:38PM 29.9483 -95.1089 87° East 279 321 8,300  Level Houston Center
06:39PM 29.9834 -94.7165 90° East  Level FlightAware Approximate
06:39PM 29.9572 -94.9819 85° East 303 349 11,100  Level Houston Center
06:40PM 29.9833 -94.5932 90° East  Level FlightAware Approximate
06:40PM 29.9642 -94.8653 86° East 357 411 13,100  Level Houston Center
06:41PM 29.9736 -94.7414 85° East 384 442 15,500 2,220 Climbing Houston Center
06:42PM 29.9878 -94.6153 83° East 395 455 17,700 1,980 Climbing Houston Center
06:43PM 30.0019 -94.4831 83° East 408 470 19,700 1,980 Climbing Houston Center
06:44PM 30.0194 -94.3214 83° East 425 489 21,800 1,800 Climbing Houston Center
06:45PM 30.0342 -94.1839 83° East 433 498 23,500 1,560 Climbing Houston Center
06:46PM 30.0478 -94.0414 84° East 445 512 25,000 1,380 Climbing Houston Center
06:47PM 30.0622 -93.8989 83° East 449 517 26,400 1,260 Climbing Houston Center
06:48PM 30.0775 -93.7517 83° East 459 528 27,700 1,620 Climbing Houston Center
06:49PM 30.0917 -93.6067 84° East 461 531 29,800 1,560 Climbing Houston Center
06:51PM 30.1064 -93.4386 84° East 443 510 31,000 1,380 Climbing Houston Center
06:52PM 30.1206 -93.2997 83° East 441 507 32,700 1,200 Climbing Houston Center
06:53PM 30.1333 -93.1619 84° East 437 503 33,500 780 Climbing Houston Center
06:54PM 30.1736 -93.0322 70° East 435 501 34,300 720 Climbing Houston Center
06:55PM 30.2311 -92.9094 62° Northeast 435 501 35,000 300 Climbing Houston Center
06:56PM 30.2864 -92.7844 63° Northeast 439 505 35,000  Level Houston Center
06:57PM 30.3542 -92.6325 63° Northeast 443 510 35,000  Level Houston Center
06:58PM 30.4094 -92.5081 63° Northeast 439 505 35,000  Level Houston Center
06:59PM 30.4633 -92.3828 63° Northeast 436 502 35,000  Level Houston Center
07:00PM 30.5164 -92.2633 63° Northeast 438 504 35,000  Level Houston Center
07:01PM 30.5711 -92.1386 63° Northeast 437 503 35,000  Level Houston Center
07:02PM 30.6378 -91.9889 63° Northeast 438 504 35,000  Level Houston Center
07:03PM 30.6936 -91.8639 63° Northeast 438 504 35,000  Level Houston Center
07:04PM 30.7478 -91.7381 63° Northeast 438 504 35,000  Level Houston Center
07:05PM 30.8033 -91.6114 63° Northeast 441 507 35,000  Level Houston Center
07:06PM 30.8578 -91.4858 63° Northeast 440 506 35,000  Level Houston Center
07:07PM 30.9128 -91.3597 63° Northeast 440 506 35,000  Level Houston Center
07:08PM 30.9781 -91.2067 64° Northeast 440 506 35,000 -60 Level Houston Center
07:09PM 31.0328 -91.0814 63° Northeast 440 506 34,900  Descending Houston Center
07:10PM 31.0864 -90.9542 64° Northeast 437 503 35,000  Climbing Houston Center
07:11PM 31.1414 -90.8258 63° Northeast 440 506 34,900 -60 Descending Houston Center
07:12PM 31.1958 -90.6983 63° Northeast 440 506 34,900  Level Houston Center
07:13PM 31.2503 -90.5689 64° Northeast 441 507 35,000  Climbing Houston Center
07:14PM 31.3047 -90.4411 63° Northeast 440 506 35,000 -60 Level Houston Center
07:15PM 31.3586 -90.3122 64° Northeast 441 507 34,900  Descending Houston Center
07:16PM 31.4125 -90.1839 64° Northeast 438 504 35,000  Climbing Houston Center
07:17PM 31.4772 -90.0292 64° Northeast 439 505 35,000  Level Houston Center
07:18PM 31.5308 -89.9014 64° Northeast 438 504 35,000  Level Houston Center
07:19PM 31.5833 -89.7733 64° Northeast 435 501 35,000  Level Houston Center
07:20PM 31.6367 -89.6447 64° Northeast 437 503 35,000  Level Houston Center
07:21PM 31.6931 -89.5061 64° Northeast 440 506 35,000  Level Houston Center
07:22PM 31.7464 -89.3747 64° Northeast 445 512 35,000  Level Houston Center
07:23PM 31.7994 -89.2442 64° Northeast 443 510 35,000  Level Houston Center
07:24PM 31.8528 -89.1147 64° Northeast 440 506 35,000  Level Houston Center
07:25PM 31.8964 -89.0092 64° Northeast 430 495 35,000  Level Memphis Center
07:26PM 31.9511 -88.8736 65° Northeast 430 495 35,000  Level Memphis Center
07:28PM 32.0542 -88.6186 64° Northeast 440 506 35,000  Level Atlanta Center
07:29PM 32.1089 -88.4867 64° Northeast 440 506 35,000  Level Atlanta Center
07:30PM 32.1594 -88.3567 65° Northeast 440 506 35,000  Level Atlanta Center
07:31PM 32.2142 -88.2242 64° Northeast 440 506 35,000  Level Atlanta Center
07:32PM 32.2667 -88.0917 65° Northeast 440 506 35,000  Level Atlanta Center
07:33PM 32.3167 -87.9589 66° East 440 506 35,000  Level Atlanta Center
07:34PM 32.3647 -87.8281 66° East 435 501 35,000  Level Atlanta Center
07:35PM 32.4167 -87.6925 66° East 435 501 35,000  Level Atlanta Center
07:36PM 32.4625 -87.5567 68° East 435 501 35,000  Level Atlanta Center
07:37PM 32.5122 -87.4183 67° East 446 513 35,000  Level Atlanta Center
07:38PM 32.5578 -87.2794 69° East 446 513 35,000  Level Atlanta Center
07:39PM 32.6094 -87.1408 66° East 451 519 35,000  Level Atlanta Center
07:40PM 32.6586 -87.0044 67° East 451 519 35,000  Level Atlanta Center
07:41PM 32.7100 -86.8656 66° East 451 519 35,000  Level Atlanta Center
07:42PM 32.7547 -86.7261 69° East 451 519 35,000  Level Atlanta Center
07:43PM 32.8078 -86.5844 66° East 451 519 35,000  Level Atlanta Center
07:44PM 32.8544 -86.4447 68° East 451 519 35,000  Level Atlanta Center
07:45PM 32.9072 -86.2978 67° East 456 525 35,000  Level Atlanta Center
07:46PM 32.9558 -86.1531 68° East 456 525 35,000  Level Atlanta Center
07:47PM 33.0061 -86.0081 68° East 463 533 35,000  Level Atlanta Center
07:48PM 33.0544 -85.8656 68° East 463 533 35,000  Level Atlanta Center
07:49PM 33.1022 -85.7225 68° East 469 540 35,000  Level Atlanta Center
07:50PM 33.1542 -85.5797 66° East 464 534 35,000 -240 Level Atlanta Center
07:51PM 33.2042 -85.4267 69° East 465 535 34,600 -720 Descending Atlanta Center
07:52PM 33.2536 -85.2808 68° East 452 520 33,600 -840 Descending Atlanta Center
07:53PM 33.2989 -85.1422 69° East 452 520 33,000 -300 Descending Atlanta Center
07:54PM 33.3481 -84.9986 68° East 452 520 33,000  Level Atlanta Center
07:55PM 33.3928 -84.8597 69° East 452 520 33,000  Level Atlanta Center
07:56PM 33.4417 -84.7158 68° East 452 520 33,000  Level Atlanta Center
07:57PM 33.4864 -84.5719 70° East 452 520 33,000  Level Atlanta Center
07:58PM 33.5328 -84.4300 69° East 452 520 33,000  Level Atlanta Center
07:59PM 33.5789 -84.2831 69° East 452 520 33,000  Level Atlanta Center
08:00PM 33.6253 -84.1386 69° East 452 520 33,000  Level Atlanta Center
08:01PM 33.6753 -83.9939 67° East 458 527 33,000  Level Atlanta Center
08:02PM 33.7211 -83.8464 69° East 464 534 33,000  Level Atlanta Center
08:03PM 33.7686 -83.7039 68° East 464 534 33,000  Level Atlanta Center
08:04PM 33.8142 -83.5564 70° East 470 541 33,000  Level Atlanta Center
08:05PM 33.8575 -83.4233 69° East 470 541 33,000  Level Atlanta Center
08:06PM 33.9108 -83.2778 66° East 470 541 33,000  Level Atlanta Center
08:07PM 33.9767 -83.1419 60° Northeast 470 541 33,000  Level Atlanta Center
08:08PM 34.0425 -83.0033 60° Northeast 475 547 33,000 -480 Level Atlanta Center
08:09PM 34.1058 -82.8622 62° Northeast 475 547 32,100 -960 Descending Atlanta Center
08:10PM 34.1753 -82.7231 59° Northeast 475 547 31,100 -1,020 Descending Atlanta Center
08:11PM 34.2508 -82.5711 59° Northeast 470 541 30,100 -1,140 Descending Atlanta Center
08:12PM 34.3161 -82.4342 60° Northeast 470 541 28,900 -2,400 Descending Atlanta Center
08:13PM 34.3831 -82.2944 60° Northeast 470 541 25,400 -3,180 Descending Atlanta Center
08:14PM 34.4456 -82.1572 61° Northeast 464 534 22,600 -2,340 Descending Atlanta Center
08:15PM 34.5000 -82.0375 61° Northeast 440 506 20,800 -2,160 Descending Atlanta Center
08:16PM 34.5525 -81.9303 59° Northeast 398 458 18,300 -2,400 Descending Atlanta Center
08:17PM 34.6028 -81.8231 60° Northeast 373 429 16,100 -2,100 Descending Atlanta Center
08:18PM 34.6450 -81.7361 59° Northeast 340 391 14,100 -2,220 Descending Atlanta Center
08:19PM 34.6811 -81.6594 60° Northeast 341 392 12,600 -1,560 Descending Atlanta Center
08:20PM 34.7433 -81.5311 59° Northeast 335 386 11,000 -720 Descending Atlanta Center
08:21PM 34.8003 -81.4586 46° Northeast 309 356 10,900 -780 Descending Atlanta Center
08:22PM 34.8508 -81.3861 50° Northeast 289 333 9,500 -1,260 Descending Atlanta Center
08:23PM 34.8761 -81.2994 70° East 272 313 8,400 -1,080 Descending Atlanta Center
08:24PM 34.8992 -81.2200 70° East 252 290 7,400 -900 Descending Atlanta Center
08:25PM 34.9206 -81.1483 70° East 237 273 6,600 -900 Descending Atlanta Center
08:26PM 34.9419 -81.0767 70° East 230 265 5,700 -840 Descending Atlanta Center
08:27PM 34.9672 -81.0047 67° East 230 265 5,000 -720 Descending Atlanta Center